Leerdam, Netherlands
Current Conditions -  °F | °C
As of 5:25 AM on Saturday 01 Nov 2014 (Local Time) from EHGR Reporting Station
Clear Clear  
Wind Chill: 52°   Ceiling: Unl
Heat Index: 52°   Visibility: 6mi
Dew Point: 50°   Wind: 3mph
Humidity: 94%   Direction: 170°S
Pressure: 30.06"   Gusts: NA
Location:  51.89°N, 5.09°E
Report Text: EHGR 010425Z AUTO 17003KT 9999 NCD 11/10 Q1018 BLU
Loading
Personal Weather Stations






























Interactive Weather Map
Tropical Storm Tracking
New forecast layout! Learn more

10-Day Weather Forecast

Advertisements
Track Severe Weather on mobile